KMRT

Union County Airport

Marysville, Ohio, USA
METAR KMRT 222055Z AUTO 26011KT 10SM CLR 16/02 A3005 RMK AO2 T01600022
Observed Flight Rules
Oct-22 @ 20:55 UTC (14 minutes ago) Visual Flight Rules
Wind Visibility Clouds
260° at 11 knots 10 miles
  • Clear skies
Temperatures Readings
Current 16°C / 61°F
Dewpoint 2°C / 36°F
Humidity 39%
Altimeter 30.05" Hg
Pressure 1018 hPa
Elevation 312
METAR KMRT 222055Z AUTO 26011KT 10SM CLR 16/02 A3005 RMK AO2 T01600022
Observed Flight Rules
Oct-22 @ 20:55 UTC
(14 minutes ago)
VFR
Wind Visibility
260° at 11 knots 10 miles
Clouds
  • Clear skies
Temperature Dewpoint
16°C / 61°F 2°C / 36°F
Humidity Altimeter Pressure
39% 30.05" Hg 1018 hPa